sensor_id;sensor_type;location;lat;lon;timestamp;pressure;altitude;pressure_sealevel;temperature;humidity
28344;BME280;15597;50.914;6.638;2022-12-18T00:01:40;102056.31;;;-0.01;55.75
28344;BME280;15597;50.914;6.638;2022-12-18T00:04:07;102059.56;;;-0.05;55.45
28344;BME280;15597;50.914;6.638;2022-12-18T00:06:34;102060.38;;;-0.06;55.44
28344;BME280;15597;50.914;6.638;2022-12-18T00:09:01;102051.03;;;-0.04;56.18
28344;BME280;15597;50.914;6.638;2022-12-18T00:11:29;102042.69;;;0.00;56.37
28344;BME280;15597;50.914;6.638;2022-12-18T00:13:57;102056.63;;;0.05;56.46
28344;BME280;15597;50.914;6.638;2022-12-18T00:16:24;102061.94;;;0.08;56.69
28344;BME280;15597;50.914;6.638;2022-12-18T00:18:51;102071.59;;;0.14;56.19
28344;BME280;15597;50.914;6.638;2022-12-18T00:21:17;102067.50;;;0.18;57.04
28344;BME280;15597;50.914;6.638;2022-12-18T00:23:46;102072.78;;;0.21;56.91
28344;BME280;15597;50.914;6.638;2022-12-18T00:26:14;102064.38;;;0.25;56.96
28344;BME280;15597;50.914;6.638;2022-12-18T00:28:41;102069.78;;;0.31;56.73
28344;BME280;15597;50.914;6.638;2022-12-18T00:31:09;102054.47;;;0.34;56.75
28344;BME280;15597;50.914;6.638;2022-12-18T00:33:36;102059.78;;;0.37;56.35
28344;BME280;15597;50.914;6.638;2022-12-18T00:36:03;102058.13;;;0.39;56.49
28344;BME280;15597;50.914;6.638;2022-12-18T00:38:30;102057.31;;;0.40;56.49
28344;BME280;15597;50.914;6.638;2022-12-18T00:40:56;102064.16;;;0.40;56.57
28344;BME280;15597;50.914;6.638;2022-12-18T00:43:21;102066.81;;;0.41;56.22
28344;BME280;15597;50.914;6.638;2022-12-18T00:45:47;102065.06;;;0.40;56.18
28344;BME280;15597;50.914;6.638;2022-12-18T00:48:12;102059.91;;;0.40;55.93
28344;BME280;15597;50.914;6.638;2022-12-18T00:50:38;102059.91;;;0.40;56.19
28344;BME280;15597;50.914;6.638;2022-12-18T00:53:03;102066.81;;;0.41;56.34
28344;BME280;15597;50.914;6.638;2022-12-18T00:55:29;102063.44;;;0.42;56.35
28344;BME280;15597;50.914;6.638;2022-12-18T00:57:54;102063.44;;;0.42;56.49
28344;BME280;15597;50.914;6.638;2022-12-18T01:00:20;102060.91;;;0.44;56.19
28344;BME280;15597;50.914;6.638;2022-12-18T01:02:47;102061.81;;;0.45;56.19
28344;BME280;15597;50.914;6.638;2022-12-18T01:05:13;102059.28;;;0.46;56.45
28344;BME280;15597;50.914;6.638;2022-12-18T01:07:39;102055.88;;;0.47;56.64
28344;BME280;15597;50.914;6.638;2022-12-18T01:10:05;102055.03;;;0.47;56.24
28344;BME280;15597;50.914;6.638;2022-12-18T01:12:31;102048.78;;;0.41;56.19
28344;BME280;15597;50.914;6.638;2022-12-18T01:14:57;102052.84;;;0.36;55.99
28344;BME280;15597;50.914;6.638;2022-12-18T01:17:22;102054.34;;;0.31;55.73
28344;BME280;15597;50.914;6.638;2022-12-18T01:19:48;102048.25;;;0.29;55.59
28344;BME280;15597;50.914;6.638;2022-12-18T01:22:13;102045.66;;;0.29;56.33
28344;BME280;15597;50.914;6.638;2022-12-18T01:24:39;102045.66;;;0.29;56.32
28344;BME280;15597;50.914;6.638;2022-12-18T01:27:04;102032.81;;;0.29;56.81
28344;BME280;15597;50.914;6.638;2022-12-18T01:29:30;102038.81;;;0.29;56.58
28344;BME280;15597;50.914;6.638;2022-12-18T01:31:56;102030.22;;;0.29;56.84
28344;BME280;15597;50.914;6.638;2022-12-18T01:34:22;102034.63;;;0.32;56.39
28344;BME280;15597;50.914;6.638;2022-12-18T01:36:48;102042.41;;;0.33;56.89
28344;BME280;15597;50.914;6.638;2022-12-18T01:39:14;102048.53;;;0.35;56.88
28344;BME280;15597;50.914;6.638;2022-12-18T01:41:41;102058.00;;;0.36;56.78
28344;BME280;15597;50.914;6.638;2022-12-18T01:44:53;102052.63;;;0.32;56.46
28344;BME280;15597;50.914;6.638;2022-12-18T01:50:09;102047.34;;;0.28;56.17
28344;BME280;15597;50.914;6.638;2022-12-18T01:52:36;102042.16;;;0.27;56.71
28344;BME280;15597;50.914;6.638;2022-12-18T01:55:06;102046.50;;;0.28;56.71
28344;BME280;15597;50.914;6.638;2022-12-18T01:57:33;102037.00;;;0.27;57.15
28344;BME280;15597;50.914;6.638;2022-12-18T02:00:08;102043.91;;;0.28;57.13
28344;BME280;15597;50.914;6.638;2022-12-18T02:02:41;102037.88;;;0.27;56.84
28344;BME280;15597;50.914;6.638;2022-12-18T02:05:09;102037.81;;;0.26;56.92
28344;BME280;15597;50.914;6.638;2022-12-18T02:10:37;102040.25;;;0.23;57.14
28344;BME280;15597;50.914;6.638;2022-12-18T02:18:44;102040.25;;;0.23;57.32
28344;BME280;15597;50.914;6.638;2022-12-18T02:21:40;102045.25;;;0.20;56.90
28344;BME280;15597;50.914;6.638;2022-12-18T02:27:16;102039.16;;;0.18;57.23
28344;BME280;15597;50.914;6.638;2022-12-18T02:29:55;102032.25;;;0.17;57.14
28344;BME280;15597;50.914;6.638;2022-12-18T02:32:28;102040.84;;;0.17;56.96
28344;BME280;15597;50.914;6.638;2022-12-18T02:34:58;102043.50;;;0.19;57.46
28344;BME280;15597;50.914;6.638;2022-12-18T02:37:27;102027.25;;;0.20;57.19
28344;BME280;15597;50.914;6.638;2022-12-18T02:39:58;102030.78;;;0.22;57.48
28344;BME280;15597;50.914;6.638;2022-12-18T02:42:25;102040.38;;;0.26;57.32
28344;BME280;15597;50.914;6.638;2022-12-18T02:44:51;102030.91;;;0.25;57.56
28344;BME280;15597;50.914;6.638;2022-12-18T02:47:27;102030.09;;;0.26;57.49
28344;BME280;15597;50.914;6.638;2022-12-18T02:55:45;102030.22;;;0.29;57.27
28344;BME280;15597;50.914;6.638;2022-12-18T02:58:20;102040.66;;;0.32;57.58
28344;BME280;15597;50.914;6.638;2022-12-18T03:01:02;102037.28;;;0.33;57.06
28344;BME280;15597;50.914;6.638;2022-12-18T03:03:39;102028.72;;;0.34;56.96
28344;BME280;15597;50.914;6.638;2022-12-18T03:06:10;102023.72;;;0.37;56.81
28344;BME280;15597;50.914;6.638;2022-12-18T03:08:41;102022.91;;;0.38;56.62
28344;BME280;15597;50.914;6.638;2022-12-18T03:11:11;102026.22;;;0.36;56.04
28344;BME280;15597;50.914;6.638;2022-12-18T03:13:56;102036.38;;;0.33;55.91
28344;BME280;15597;50.914;6.638;2022-12-18T03:16:28;102015.50;;;0.26;55.57
28344;BME280;15597;50.914;6.638;2022-12-18T03:19:01;102014.38;;;0.20;55.45
28344;BME280;15597;50.914;6.638;2022-12-18T03:21:35;102011.66;;;0.17;56.15
28344;BME280;15597;50.914;6.638;2022-12-18T03:24:06;102005.56;;;0.14;56.22
28344;BME280;15597;50.914;6.638;2022-12-18T03:26:35;102000.41;;;0.14;56.08
28344;BME280;15597;50.914;6.638;2022-12-18T03:29:07;101998.66;;;0.13;56.19
28344;BME280;15597;50.914;6.638;2022-12-18T03:31:37;101996.91;;;0.12;56.56
28344;BME280;15597;50.914;6.638;2022-12-18T03:34:09;101999.34;;;0.09;56.34
28344;BME280;15597;50.914;6.638;2022-12-18T03:36:42;102004.22;;;0.03;56.33
28344;BME280;15597;50.914;6.638;2022-12-18T03:39:08;102010.00;;;-0.01;56.45
28344;BME280;15597;50.914;6.638;2022-12-18T03:41:47;102010.75;;;-0.04;56.11
28344;BME280;15597;50.914;6.638;2022-12-18T03:44:27;102006.34;;;-0.06;56.25
28344;BME280;15597;50.914;6.638;2022-12-18T03:49:25;102004.38;;;-0.12;56.60
28344;BME280;15597;50.914;6.638;2022-12-18T03:52:01;101997.34;;;-0.16;56.68
28344;BME280;15597;50.914;6.638;2022-12-18T03:54:33;101990.50;;;-0.16;57.00
28344;BME280;15597;50.914;6.638;2022-12-18T03:57:14;101986.25;;;-0.15;56.53
28344;BME280;15597;50.914;6.638;2022-12-18T03:59:43;101985.34;;;-0.16;56.61
28344;BME280;15597;50.914;6.638;2022-12-18T04:02:10;101982.91;;;-0.12;56.92
28344;BME280;15597;50.914;6.638;2022-12-18T04:04:37;101989.81;;;-0.11;56.94
28344;BME280;15597;50.914;6.638;2022-12-18T04:07:04;101978.72;;;-0.10;56.86
28344;BME280;15597;50.914;6.638;2022-12-18T04:09:34;101971.00;;;-0.10;56.83
28344;BME280;15597;50.914;6.638;2022-12-18T04:12:00;101969.91;;;-0.16;57.00
28344;BME280;15597;50.914;6.638;2022-12-18T04:14:26;101981.91;;;-0.16;56.64
28344;BME280;15597;50.914;6.638;2022-12-18T04:16:54;101970.81;;;-0.15;56.47
28344;BME280;15597;50.914;6.638;2022-12-18T04:19:25;101976.81;;;-0.15;56.63
28344;BME280;15597;50.914;6.638;2022-12-18T04:21:52;101975.19;;;-0.12;56.69
28344;BME280;15597;50.914;6.638;2022-12-18T04:24:18;101971.81;;;-0.11;56.48
28344;BME280;15597;50.914;6.638;2022-12-18T04:26:53;101971.75;;;-0.13;56.89
28344;BME280;15597;50.914;6.638;2022-12-18T04:29:26;101958.75;;;-0.16;57.00
28344;BME280;15597;50.914;6.638;2022-12-18T04:31:51;101963.13;;;-0.13;57.33
28344;BME280;15597;50.914;6.638;2022-12-18T04:34:18;101963.94;;;-0.15;56.95
28344;BME280;15597;50.914;6.638;2022-12-18T04:36:49;101958.00;;;-0.13;57.33
28344;BME280;15597;50.914;6.638;2022-12-18T04:39:15;101967.47;;;-0.12;57.42
28344;BME280;15597;50.914;6.638;2022-12-18T04:41:44;101964.16;;;-0.10;57.10
28344;BME280;15597;50.914;6.638;2022-12-18T04:44:12;101970.31;;;-0.06;57.33
28344;BME280;15597;50.914;6.638;2022-12-18T04:46:37;101959.28;;;-0.04;58.02
28344;BME280;15597;50.914;6.638;2022-12-18T04:49:03;101961.91;;;-0.02;57.76
28344;BME280;15597;50.914;6.638;2022-12-18T04:51:28;101957.66;;;-0.02;57.45
28344;BME280;15597;50.914;6.638;2022-12-18T04:53:54;101956.03;;;0.01;57.45
28344;BME280;15597;50.914;6.638;2022-12-18T04:56:19;101949.28;;;0.03;57.03
28344;BME280;15597;50.914;6.638;2022-12-18T04:58:45;101945.88;;;0.04;57.88
28344;BME280;15597;50.914;6.638;2022-12-18T05:01:13;101950.31;;;0.06;57.54
28344;BME280;15597;50.914;6.638;2022-12-18T05:03:38;101943.44;;;0.07;57.16
28344;BME280;15597;50.914;6.638;2022-12-18T05:06:05;101933.22;;;0.08;57.54
28344;BME280;15597;50.914;6.638;2022-12-18T05:08:31;101936.63;;;0.07;57.37
28344;BME280;15597;50.914;6.638;2022-12-18T05:11:12;101940.00;;;0.06;57.76
28344;BME280;15597;50.914;6.638;2022-12-18T05:13:41;101945.28;;;0.09;57.72
28344;BME280;15597;50.914;6.638;2022-12-18T05:16:07;101942.72;;;0.09;57.87
28344;BME280;15597;50.914;6.638;2022-12-18T05:18:34;101941.91;;;0.10;57.82
28344;BME280;15597;50.914;6.638;2022-12-18T05:20:59;101949.53;;;0.09;57.54
28344;BME280;15597;50.914;6.638;2022-12-18T05:23:25;101958.75;;;0.04;57.30
28344;BME280;15597;50.914;6.638;2022-12-18T05:25:56;101960.16;;;-0.03;56.92
28344;BME280;15597;50.914;6.638;2022-12-18T05:28:24;101956.50;;;-0.08;56.99
28344;BME280;15597;50.914;6.638;2022-12-18T05:30:56;101963.22;;;-0.12;57.22
28344;BME280;15597;50.914;6.638;2022-12-18T05:33:23;101965.66;;;-0.15;56.88
28344;BME280;15597;50.914;6.638;2022-12-18T05:35:53;101975.88;;;-0.17;56.84
28344;BME280;15597;50.914;6.638;2022-12-18T05:38:20;101975.00;;;-0.17;57.41
28344;BME280;15597;50.914;6.638;2022-12-18T05:40:47;101980.97;;;-0.18;57.04
28344;BME280;15597;50.914;6.638;2022-12-18T05:43:12;101987.72;;;-0.20;57.46
28344;BME280;15597;50.914;6.638;2022-12-18T05:45:39;101996.25;;;-0.21;57.19
28344;BME280;15597;50.914;6.638;2022-12-18T05:48:07;102001.31;;;-0.23;57.59
28344;BME280;15597;50.914;6.638;2022-12-18T05:50:37;102013.38;;;-0.22;57.53
28344;BME280;15597;50.914;6.638;2022-12-18T05:53:04;102015.94;;;-0.22;57.33
28344;BME280;15597;50.914;6.638;2022-12-18T05:55:37;102021.09;;;-0.22;57.43
28344;BME280;15597;50.914;6.638;2022-12-18T05:58:04;102021.09;;;-0.22;57.37
28344;BME280;15597;50.914;6.638;2022-12-18T06:00:30;102025.28;;;-0.24;56.95
28344;BME280;15597;50.914;6.638;2022-12-18T06:02:57;102012.38;;;-0.25;56.85
28344;BME280;15597;50.914;6.638;2022-12-18T06:05:23;102012.41;;;-0.24;57.14
28344;BME280;15597;50.914;6.638;2022-12-18T06:07:49;101998.75;;;-0.23;56.83
28344;BME280;15597;50.914;6.638;2022-12-18T06:10:17;102002.25;;;-0.21;57.56
28344;BME280;15597;50.914;6.638;2022-12-18T06:12:43;102009.94;;;-0.22;57.25
28344;BME280;15597;50.914;6.638;2022-12-18T06:15:08;102022.72;;;-0.24;56.59
28344;BME280;15597;50.914;6.638;2022-12-18T06:17:34;102019.31;;;-0.23;57.62
28344;BME280;15597;50.914;6.638;2022-12-18T06:20:00;102010.78;;;-0.22;57.63
28344;BME280;15597;50.914;6.638;2022-12-18T06:22:27;102012.66;;;-0.19;57.14
28344;BME280;15597;50.914;6.638;2022-12-18T06:24:52;102011.84;;;-0.18;57.62
28344;BME280;15597;50.914;6.638;2022-12-18T06:27:18;102007.56;;;-0.18;57.37
28344;BME280;15597;50.914;6.638;2022-12-18T06:29:44;102014.47;;;-0.17;57.54
28344;BME280;15597;50.914;6.638;2022-12-18T06:32:09;102007.56;;;-0.18;57.33
28344;BME280;15597;50.914;6.638;2022-12-18T06:34:37;102004.16;;;-0.17;57.75
28344;BME280;15597;50.914;6.638;2022-12-18T06:37:03;101997.25;;;-0.18;57.17
28344;BME280;15597;50.914;6.638;2022-12-18T06:39:29;102001.59;;;-0.17;56.92
28344;BME280;15597;50.914;6.638;2022-12-18T06:41:54;101992.13;;;-0.18;57.19
28344;BME280;15597;50.914;6.638;2022-12-18T06:44:20;101980.97;;;-0.18;56.72
28344;BME280;15597;50.914;6.638;2022-12-18T06:46:46;101980.06;;;-0.19;57.05
28344;BME280;15597;50.914;6.638;2022-12-18T06:49:11;101983.59;;;-0.17;57.09
28344;BME280;15597;50.914;6.638;2022-12-18T06:51:37;101982.78;;;-0.16;57.42
28344;BME280;15597;50.914;6.638;2022-12-18T06:54:03;101977.63;;;-0.16;57.31
28344;BME280;15597;50.914;6.638;2022-12-18T06:56:29;101972.34;;;-0.19;57.31
28344;BME280;15597;50.914;6.638;2022-12-18T06:58:54;101968.00;;;-0.20;57.79
28344;BME280;15597;50.914;6.638;2022-12-18T07:01:20;101978.38;;;-0.18;57.90
28344;BME280;15597;50.914;6.638;2022-12-18T07:03:46;101970.53;;;-0.21;58.02
28344;BME280;15597;50.914;6.638;2022-12-18T07:06:16;101985.06;;;-0.22;57.64
28344;BME280;15597;50.914;6.638;2022-12-18T07:08:43;101987.59;;;-0.23;57.50
28344;BME280;15597;50.914;6.638;2022-12-18T07:11:08;101987.50;;;-0.25;57.05
28344;BME280;15597;50.914;6.638;2022-12-18T07:13:34;101979.78;;;-0.25;57.48
28344;BME280;15597;50.914;6.638;2022-12-18T07:16:08;101978.97;;;-0.24;57.42
28344;BME280;15597;50.914;6.638;2022-12-18T07:18:34;101984.94;;;-0.25;57.83
28344;BME280;15597;50.914;6.638;2022-12-18T07:21:10;101984.94;;;-0.25;57.82
28344;BME280;15597;50.914;6.638;2022-12-18T07:23:36;101972.88;;;-0.26;57.55
28344;BME280;15597;50.914;6.638;2022-12-18T07:26:10;101972.97;;;-0.24;57.59
28344;BME280;15597;50.914;6.638;2022-12-18T07:28:37;101968.63;;;-0.25;57.58
28344;BME280;15597;50.914;6.638;2022-12-18T07:31:04;101965.91;;;-0.28;57.64
28344;BME280;15597;50.914;6.638;2022-12-18T07:33:30;101967.59;;;-0.29;57.42
28344;BME280;15597;50.914;6.638;2022-12-18T07:35:55;101976.13;;;-0.30;57.17
28344;BME280;15597;50.914;6.638;2022-12-18T07:38:21;101978.78;;;-0.28;57.74
28344;BME280;15597;50.914;6.638;2022-12-18T07:40:47;101981.28;;;-0.30;57.99
28344;BME280;15597;50.914;6.638;2022-12-18T07:43:12;101986.28;;;-0.33;57.04
28344;BME280;15597;50.914;6.638;2022-12-18T07:45:38;101994.66;;;-0.37;57.61
28344;BME280;15597;50.914;6.638;2022-12-18T07:48:03;101985.13;;;-0.40;57.13
28344;BME280;15597;50.914;6.638;2022-12-18T07:50:29;101986.88;;;-0.39;57.22
28344;BME280;15597;50.914;6.638;2022-12-18T07:52:55;101984.38;;;-0.37;56.80
28344;BME280;15597;50.914;6.638;2022-12-18T07:55:20;101972.31;;;-0.38;57.51
28344;BME280;15597;50.914;6.638;2022-12-18T07:57:45;101971.59;;;-0.36;56.99
28344;BME280;15597;50.914;6.638;2022-12-18T08:00:12;101962.19;;;-0.35;57.25
28344;BME280;15597;50.914;6.638;2022-12-18T08:02:38;101951.22;;;-0.31;57.41
28344;BME280;15597;50.914;6.638;2022-12-18T08:05:03;101942.78;;;-0.28;57.42
28344;BME280;15597;50.914;6.638;2022-12-18T08:07:29;101942.00;;;-0.26;57.89
28344;BME280;15597;50.914;6.638;2022-12-18T08:09:55;101935.25;;;-0.24;57.96
28344;BME280;15597;50.914;6.638;2022-12-18T08:12:20;101931.84;;;-0.23;58.17
28344;BME280;15597;50.914;6.638;2022-12-18T08:14:45;101933.63;;;-0.22;57.78
28344;BME280;15597;50.914;6.638;2022-12-18T08:17:11;101924.22;;;-0.21;58.08
28344;BME280;15597;50.914;6.638;2022-12-18T08:19:36;101924.34;;;-0.18;57.79
28344;BME280;15597;50.914;6.638;2022-12-18T08:22:02;101916.78;;;-0.15;57.96
28344;BME280;15597;50.914;6.638;2022-12-18T08:24:28;101912.63;;;-0.11;57.72
28344;BME280;15597;50.914;6.638;2022-12-18T08:26:53;101923.88;;;-0.09;57.92
28344;BME280;15597;50.914;6.638;2022-12-18T08:29:19;101920.47;;;-0.08;57.83
28344;BME280;15597;50.914;6.638;2022-12-18T08:31:44;101911.91;;;-0.09;58.18
28344;BME280;15597;50.914;6.638;2022-12-18T08:34:10;101907.63;;;-0.08;57.73
28344;BME280;15597;50.914;6.638;2022-12-18T08:36:35;101898.22;;;-0.08;58.38
28344;BME280;15597;50.914;6.638;2022-12-18T08:39:01;101893.88;;;-0.09;58.44
28344;BME280;15597;50.914;6.638;2022-12-18T08:41:26;101895.66;;;-0.08;58.16
28344;BME280;15597;50.914;6.638;2022-12-18T08:43:52;101901.75;;;-0.06;58.56
28344;BME280;15597;50.914;6.638;2022-12-18T08:46:41;101916.38;;;-0.05;58.82
28344;BME280;15597;50.914;6.638;2022-12-18T08:49:08;101912.09;;;-0.04;58.16
28344;BME280;15597;50.914;6.638;2022-12-18T08:51:34;101909.72;;;0.01;58.81
28344;BME280;15597;50.914;6.638;2022-12-18T08:54:01;101909.81;;;0.02;58.50
28344;BME280;15597;50.914;6.638;2022-12-18T08:56:28;101907.34;;;0.05;58.49
28344;BME280;15597;50.914;6.638;2022-12-18T08:58:55;101906.69;;;0.09;58.98
28344;BME280;15597;50.914;6.638;2022-12-18T09:01:21;101899.09;;;0.12;58.52
28344;BME280;15597;50.914;6.638;2022-12-18T09:03:50;101893.19;;;0.15;58.40
28344;BME280;15597;50.914;6.638;2022-12-18T09:06:18;101888.09;;;0.17;58.32
28344;BME280;15597;50.914;6.638;2022-12-18T09:08:44;101904.50;;;0.19;58.65
28344;BME280;15597;50.914;6.638;2022-12-18T09:11:15;101911.41;;;0.20;58.45
28344;BME280;15597;50.914;6.638;2022-12-18T09:13:43;101914.91;;;0.22;58.16
28344;BME280;15597;50.914;6.638;2022-12-18T09:16:09;101910.63;;;0.22;58.08
28344;BME280;15597;50.914;6.638;2022-12-18T09:18:35;101896.09;;;0.23;58.35
28344;BME280;15597;50.914;6.638;2022-12-18T09:21:08;101892.69;;;0.24;58.58
28344;BME280;15597;50.914;6.638;2022-12-18T09:23:33;101892.69;;;0.24;58.61
28344;BME280;15597;50.914;6.638;2022-12-18T09:25:59;101890.16;;;0.25;58.98
28344;BME280;15597;50.914;6.638;2022-12-18T09:28:26;101880.91;;;0.29;58.27
28344;BME280;15597;50.914;6.638;2022-12-18T09:30:52;101875.75;;;0.29;58.72
28344;BME280;15597;50.914;6.638;2022-12-18T09:33:18;101864.75;;;0.33;58.68
28344;BME280;15597;50.914;6.638;2022-12-18T09:35:44;101867.47;;;0.36;58.71
28344;BME280;15597;50.914;6.638;2022-12-18T09:38:16;101868.28;;;0.35;58.34
28344;BME280;15597;50.914;6.638;2022-12-18T09:41:15;101866.56;;;0.36;58.91
28344;BME280;15597;50.914;6.638;2022-12-18T09:43:48;101867.50;;;0.38;58.34
28344;BME280;15597;50.914;6.638;2022-12-18T09:46:23;101865.81;;;0.38;58.12
28344;BME280;15597;50.914;6.638;2022-12-18T09:48:52;101865.94;;;0.41;58.56
28344;BME280;15597;50.914;6.638;2022-12-18T09:51:25;101859.09;;;0.42;58.82
28344;BME280;15597;50.914;6.638;2022-12-18T09:54:05;101837.66;;;0.43;58.52
28344;BME280;15597;50.914;6.638;2022-12-18T09:56:35;101832.59;;;0.45;58.23
28344;BME280;15597;50.914;6.638;2022-12-18T09:59:04;101825.81;;;0.47;58.46
28344;BME280;15597;50.914;6.638;2022-12-18T10:01:31;101833.53;;;0.47;58.55
28344;BME280;15597;50.914;6.638;2022-12-18T10:03:57;101827.56;;;0.48;58.53
28344;BME280;15597;50.914;6.638;2022-12-18T10:06:37;101826.63;;;0.46;58.47
28344;BME280;15597;50.914;6.638;2022-12-18T10:09:22;101829.13;;;0.44;58.71
28344;BME280;15597;50.914;6.638;2022-12-18T10:12:04;101833.91;;;0.35;59.04
28344;BME280;15597;50.914;6.638;2022-12-18T10:20:01;101832.59;;;0.45;58.67
28344;BME280;15597;50.914;6.638;2022-12-18T10:22:42;101826.63;;;0.46;58.68
28344;BME280;15597;50.914;6.638;2022-12-18T10:27:56;101823.47;;;0.53;58.79
28344;BME280;15597;50.914;6.638;2022-12-18T10:30:24;101817.63;;;0.57;58.82
28344;BME280;15597;50.914;6.638;2022-12-18T10:32:50;101817.69;;;0.58;58.26
28344;BME280;15597;50.914;6.638;2022-12-18T10:35:25;101802.25;;;0.58;58.38
28344;BME280;15597;50.914;6.638;2022-12-18T10:40:30;101819.59;;;0.63;58.33
28344;BME280;15597;50.914;6.638;2022-12-18T10:43:13;101817.03;;;0.64;58.20
28344;BME280;15597;50.914;6.638;2022-12-18T10:45:40;101794.81;;;0.66;58.40
28344;BME280;15597;50.914;6.638;2022-12-18T10:48:18;101791.41;;;0.67;58.31
28344;BME280;15597;50.914;6.638;2022-12-18T10:50:48;101787.25;;;0.71;58.57
28344;BME280;15597;50.914;6.638;2022-12-18T10:53:20;101776.13;;;0.72;58.20
28344;BME280;15597;50.914;6.638;2022-12-18T10:55:47;101785.66;;;0.75;58.16
28344;BME280;15597;50.914;6.638;2022-12-18T11:01:17;101794.22;;;0.73;58.46
28344;BME280;15597;50.914;6.638;2022-12-18T11:06:18;101796.06;;;0.76;58.32
28344;BME280;15597;50.914;6.638;2022-12-18T11:09:01;101795.16;;;0.76;58.22
28344;BME280;15597;50.914;6.638;2022-12-18T11:11:28;101801.31;;;0.79;58.51
28344;BME280;15597;50.914;6.638;2022-12-18T11:14:05;101790.22;;;0.82;58.49
28344;BME280;15597;50.914;6.638;2022-12-18T11:16:42;101785.31;;;0.88;58.20
28344;BME280;15597;50.914;6.638;2022-12-18T11:21:41;101788.13;;;0.94;58.32
28344;BME280;15597;50.914;6.638;2022-12-18T11:24:19;101771.84;;;0.95;57.87
28344;BME280;15597;50.914;6.638;2022-12-18T11:26:45;101761.63;;;0.98;58.26
28344;BME280;15597;50.914;6.638;2022-12-18T11:29:17;101766.91;;;1.01;58.22
28344;BME280;15597;50.914;6.638;2022-12-18T11:31:43;101755.78;;;1.02;58.25
28344;BME280;15597;50.914;6.638;2022-12-18T11:34:22;101755.09;;;1.07;58.08
28344;BME280;15597;50.914;6.638;2022-12-18T11:36:52;101751.81;;;1.11;58.03
28344;BME280;15597;50.914;6.638;2022-12-18T11:39:27;101758.72;;;1.12;57.68
28344;BME280;15597;50.914;6.638;2022-12-18T11:42:02;101760.59;;;1.16;57.79
28344;BME280;15597;50.914;6.638;2022-12-18T11:44:48;101755.53;;;1.19;57.75
28344;BME280;15597;50.914;6.638;2022-12-18T11:49:51;101743.69;;;1.24;57.65
28344;BME280;15597;50.914;6.638;2022-12-18T11:52:21;101739.47;;;1.26;57.43
28344;BME280;15597;50.914;6.638;2022-12-18T11:54:55;101725.66;;;1.26;57.45
28344;BME280;15597;50.914;6.638;2022-12-18T12:00:18;101714.59;;;1.28;57.51
28344;BME280;15597;50.914;6.638;2022-12-18T12:17:06;101708.13;;;1.40;56.88
28344;BME280;15597;50.914;6.638;2022-12-18T12:20:32;101714.09;;;1.39;56.90
28344;BME280;15597;50.914;6.638;2022-12-18T12:25:16;101712.47;;;1.42;57.31
28344;BME280;15597;50.914;6.638;2022-12-18T12:27:57;101710.91;;;1.46;57.07
28344;BME280;15597;50.914;6.638;2022-12-18T12:33:08;101710.28;;;1.53;56.82
28344;BME280;15597;50.914;6.638;2022-12-18T12:38:40;101711.22;;;1.55;56.72
28344;BME280;15597;50.914;6.638;2022-12-18T12:41:13;101711.22;;;1.55;57.01
28344;BME280;15597;50.914;6.638;2022-12-18T12:44:02;101718.06;;;1.55;56.91
28344;BME280;15597;50.914;6.638;2022-12-18T12:46:31;101720.69;;;1.56;57.20
28344;BME280;15597;50.914;6.638;2022-12-18T12:49:09;101716.53;;;1.60;57.01
28344;BME280;15597;50.914;6.638;2022-12-18T12:51:40;101704.59;;;1.64;56.92
28344;BME280;15597;50.914;6.638;2022-12-18T12:54:21;101713.28;;;1.66;57.24
28344;BME280;15597;50.914;6.638;2022-12-18T12:56:59;101718.53;;;1.69;56.92
28344;BME280;15597;50.914;6.638;2022-12-18T12:59:49;101698.00;;;1.72;56.69
28344;BME280;15597;50.914;6.638;2022-12-18T13:02:28;101688.50;;;1.71;56.87
28344;BME280;15597;50.914;6.638;2022-12-18T13:05:09;101679.94;;;1.72;56.66
28344;BME280;15597;50.914;6.638;2022-12-18T13:07:41;101673.00;;;1.71;56.64
28344;BME280;15597;50.914;6.638;2022-12-18T13:10:37;101669.50;;;1.69;56.70
28344;BME280;15597;50.914;6.638;2022-12-18T13:13:06;101664.34;;;1.69;56.72
28344;BME280;15597;50.914;6.638;2022-12-18T13:15:50;101647.06;;;1.66;56.61
28344;BME280;15597;50.914;6.638;2022-12-18T13:18:28;101642.75;;;1.65;56.71
28344;BME280;15597;50.914;6.638;2022-12-18T13:31:02;101636.88;;;1.71;56.66
28344;BME280;15597;50.914;6.638;2022-12-18T13:36:13;101626.66;;;1.74;56.37
28344;BME280;15597;50.914;6.638;2022-12-18T13:38:40;101628.41;;;1.75;56.21
28344;BME280;15597;50.914;6.638;2022-12-18T13:43:43;101614.59;;;1.73;56.35
28344;BME280;15597;50.914;6.638;2022-12-18T13:49:06;101603.31;;;1.69;56.47
28344;BME280;15597;50.914;6.638;2022-12-18T13:51:32;101605.63;;;1.62;56.66
28344;BME280;15597;50.914;6.638;2022-12-18T13:54:01;101609.13;;;1.64;56.67
28344;BME280;15597;50.914;6.638;2022-12-18T13:56:30;101609.13;;;1.64;56.42
28344;BME280;15597;50.914;6.638;2022-12-18T13:59:05;101603.97;;;1.64;56.51
28344;BME280;15597;50.914;6.638;2022-12-18T14:01:32;101609.13;;;1.64;56.65
28344;BME280;15597;50.914;6.638;2022-12-18T14:04:33;101618.59;;;1.63;56.95
28344;BME280;15597;50.914;6.638;2022-12-18T14:07:03;101618.53;;;1.62;56.76
28344;BME280;15597;50.914;6.638;2022-12-18T14:09:31;101599.63;;;1.61;56.83
28344;BME280;15597;50.914;6.638;2022-12-18T14:12:00;101603.97;;;1.64;56.48
28344;BME280;15597;50.914;6.638;2022-12-18T14:14:48;101599.66;;;1.63;56.57
28344;BME280;15597;50.914;6.638;2022-12-18T14:17:15;101607.44;;;1.64;56.75
28344;BME280;15597;50.914;6.638;2022-12-18T14:19:47;101610.91;;;1.65;56.57
28344;BME280;15597;50.914;6.638;2022-12-18T14:22:17;101605.72;;;1.65;56.48
28344;BME280;15597;50.914;6.638;2022-12-18T14:24:42;101593.75;;;1.67;56.76
28344;BME280;15597;50.914;6.638;2022-12-18T14:27:26;101588.59;;;1.67;56.57
28344;BME280;15597;50.914;6.638;2022-12-18T14:29:52;101581.69;;;1.66;56.68
28344;BME280;15597;50.914;6.638;2022-12-18T14:32:19;101582.59;;;1.68;56.61
28344;BME280;15597;50.914;6.638;2022-12-18T14:34:50;101569.81;;;1.71;56.58
28344;BME280;15597;50.914;6.638;2022-12-18T14:37:21;101571.56;;;1.72;56.42
28344;BME280;15597;50.914;6.638;2022-12-18T14:39:54;101567.31;;;1.74;56.48